createdAt,value
2022-11-24T00:01:49.059Z,6.20
2022-11-24T00:04:17.894Z,5.40
2022-11-24T00:06:48.082Z,6.13
2022-11-24T00:09:17.078Z,5.83
2022-11-24T00:11:45.905Z,5.73
2022-11-24T00:14:14.862Z,5.80
2022-11-24T00:16:44.103Z,5.33
2022-11-24T00:19:18.373Z,5.60
2022-11-24T00:21:49.943Z,5.70
2022-11-24T00:24:18.925Z,5.57
2022-11-24T00:26:47.886Z,5.30
2022-11-24T00:29:16.903Z,5.30
2022-11-24T00:31:45.718Z,5.63
2022-11-24T00:34:16.113Z,5.13
2022-11-24T00:36:45.086Z,5.10
2022-11-24T00:39:17.448Z,5.07
2022-11-24T00:41:46.387Z,4.73
2022-11-24T00:44:15.235Z,5.37
2022-11-24T00:46:44.211Z,4.93
2022-11-24T00:49:13.176Z,5.00
2022-11-24T00:51:42.110Z,5.07
2022-11-24T00:54:10.981Z,4.87
2022-11-24T00:56:41.182Z,5.33
2022-11-24T00:59:10.245Z,5.20
2022-11-24T01:01:39.220Z,4.80
2022-11-24T01:04:08.124Z,4.57
2022-11-24T01:06:38.154Z,5.30
2022-11-24T01:09:06.978Z,5.17
2022-11-24T01:11:51.385Z,4.73
2022-11-24T01:14:22.153Z,4.37
2022-11-24T01:16:51.175Z,4.70
2022-11-24T01:19:20.397Z,4.57
2022-11-24T01:21:49.611Z,4.60
2022-11-24T01:24:20.537Z,4.73
2022-11-24T01:26:49.329Z,4.50
2022-11-24T01:29:18.133Z,5.03
2022-11-24T01:31:48.344Z,3.77
2022-11-24T01:34:17.188Z,4.87
2022-11-24T01:36:46.144Z,5.07
2022-11-24T01:39:15.102Z,3.90
2022-11-24T01:41:44.290Z,4.20
2022-11-24T01:44:25.724Z,4.20
2022-11-24T01:47:02.000Z,3.73
2022-11-24T01:49:41.061Z,3.70
2022-11-24T01:52:17.259Z,4.03
2022-11-24T01:54:52.914Z,3.77
2022-11-24T01:57:35.059Z,3.63
2022-11-24T02:00:30.247Z,3.90
2022-11-24T02:03:01.407Z,3.73
2022-11-24T02:06:00.638Z,3.77
2022-11-24T02:08:39.681Z,3.67
2022-11-24T02:11:09.482Z,3.83
2022-11-24T02:13:41.350Z,3.70
2022-11-24T02:16:13.636Z,3.80
2022-11-24T02:18:45.477Z,3.90
2022-11-24T02:21:17.693Z,3.70
2022-11-24T02:23:57.035Z,3.70
2022-11-24T02:26:47.373Z,3.23
2022-11-24T02:29:17.053Z,3.40
2022-11-24T02:31:52.543Z,3.27
2022-11-24T02:34:21.522Z,3.57
2022-11-24T02:36:50.494Z,2.83
2022-11-24T02:39:19.633Z,3.07
2022-11-24T02:41:58.238Z,3.10
2022-11-24T02:44:34.440Z,2.97
2022-11-24T02:47:06.997Z,3.10
2022-11-24T02:49:36.141Z,2.77
2022-11-24T02:52:05.940Z,2.93
2022-11-24T02:54:35.649Z,3.00
2022-11-24T02:57:06.572Z,3.10
2022-11-24T02:59:35.504Z,3.23
2022-11-24T03:02:12.591Z,3.23
2022-11-24T03:04:41.494Z,3.00
2022-11-24T03:07:10.963Z,2.90
2022-11-24T03:09:39.886Z,3.70
2022-11-24T03:12:10.505Z,3.30
2022-11-24T03:14:39.273Z,3.10
2022-11-24T03:17:08.204Z,3.00
2022-11-24T03:19:37.012Z,3.20
2022-11-24T03:22:06.010Z,3.20
2022-11-24T03:24:35.072Z,3.20
2022-11-24T03:27:04.050Z,3.07
2022-11-24T03:29:34.600Z,3.20
2022-11-24T03:32:03.731Z,3.13
2022-11-24T03:34:41.515Z,3.27
2022-11-24T03:37:15.959Z,3.40
2022-11-24T03:39:49.780Z,3.20
2022-11-24T03:42:24.053Z,3.03
2022-11-24T03:44:54.242Z,3.20
2022-11-24T03:47:23.143Z,3.17
2022-11-24T03:49:52.025Z,3.20
2022-11-24T03:52:20.924Z,3.10
2022-11-24T03:56:10.641Z,3.13
2022-11-24T03:58:40.387Z,3.27
2022-11-24T04:01:10.816Z,3.00
2022-11-24T04:03:39.646Z,3.13
2022-11-24T04:06:08.472Z,3.60
2022-11-24T04:08:37.309Z,3.10
2022-11-24T04:11:07.235Z,3.47
2022-11-24T04:13:35.141Z,3.13
2022-11-24T04:16:07.716Z,3.37
2022-11-24T04:18:38.063Z,3.33
2022-11-24T04:21:07.240Z,3.37
2022-11-24T04:23:36.059Z,3.77
2022-11-24T04:26:04.931Z,3.30
2022-11-24T04:28:33.689Z,3.67
2022-11-24T04:31:04.237Z,3.60
2022-11-24T04:33:33.315Z,3.60
2022-11-24T04:36:03.651Z,3.27
2022-11-24T04:39:25.819Z,3.90
2022-11-24T04:41:21.336Z,3.60
2022-11-24T04:43:51.382Z,3.40
2022-11-24T04:46:20.398Z,3.37
2022-11-24T04:48:49.309Z,3.43
2022-11-24T04:51:19.511Z,3.53
2022-11-24T04:53:53.058Z,4.00
2022-11-24T04:56:22.009Z,3.63
2022-11-24T04:58:52.945Z,3.40
2022-11-24T05:01:21.876Z,4.40
2022-11-24T05:03:50.785Z,4.27
2022-11-24T05:06:21.033Z,3.80
2022-11-24T05:08:51.146Z,3.80
2022-11-24T05:11:20.955Z,3.63
2022-11-24T05:13:57.979Z,3.63
2022-11-24T05:16:27.415Z,4.10
2022-11-24T05:18:56.169Z,4.23
2022-11-24T05:21:26.449Z,4.13
2022-11-24T05:23:55.333Z,4.57
2022-11-24T05:26:29.771Z,4.30
2022-11-24T05:28:58.967Z,4.63
2022-11-24T05:31:28.036Z,4.30
2022-11-24T05:33:57.101Z,4.20
2022-11-24T05:36:44.876Z,4.10
2022-11-24T05:39:13.626Z,3.90
2022-11-24T05:41:44.086Z,4.13
2022-11-24T05:44:38.351Z,4.30
2022-11-24T05:47:29.802Z,4.20
2022-11-24T05:50:01.010Z,4.37
2022-11-24T05:52:31.214Z,4.07
2022-11-24T05:55:00.195Z,6.00
2022-11-24T05:57:29.342Z,4.77
2022-11-24T06:00:01.394Z,4.47
2022-11-24T06:02:30.754Z,4.47
2022-11-24T06:05:00.625Z,4.40
2022-11-24T06:07:30.921Z,5.27
2022-11-24T06:09:59.643Z,5.27
2022-11-24T06:12:28.381Z,4.93
2022-11-24T06:14:57.362Z,4.90
2022-11-24T06:17:26.569Z,5.30
2022-11-24T06:19:55.315Z,5.10
2022-11-24T06:22:24.166Z,5.03
2022-11-24T06:24:55.555Z,4.70
2022-11-24T06:27:25.043Z,4.90
2022-11-24T06:29:57.422Z,5.40
2022-11-24T06:32:29.488Z,5.57
2022-11-24T06:34:58.241Z,5.23
2022-11-24T06:37:26.974Z,5.97
2022-11-24T06:39:57.220Z,5.60
2022-11-24T06:42:25.959Z,5.60
2022-11-24T06:44:54.819Z,5.37
2022-11-24T06:47:23.655Z,5.23
2022-11-24T06:49:52.710Z,5.50
2022-11-24T06:52:21.664Z,4.97
2022-11-24T06:54:50.387Z,6.03
2022-11-24T06:57:20.598Z,6.70
2022-11-24T06:59:49.947Z,5.50
2022-11-24T07:02:19.085Z,5.40
2022-11-24T07:04:47.848Z,5.33
2022-11-24T07:07:16.641Z,5.80
2022-11-24T07:09:46.471Z,5.93
2022-11-24T07:12:15.198Z,5.43
2022-11-24T07:14:45.439Z,5.60
2022-11-24T07:17:15.259Z,6.43
2022-11-24T07:19:45.207Z,6.20
2022-11-24T07:22:13.973Z,6.57
2022-11-24T07:24:42.691Z,6.70
2022-11-24T07:27:11.419Z,7.70
2022-11-24T07:29:40.162Z,6.07
2022-11-24T07:32:10.441Z,5.90
2022-11-24T07:34:39.270Z,6.87
2022-11-24T07:37:08.209Z,8.57
2022-11-24T07:39:37.110Z,6.33
2022-11-24T07:42:06.899Z,6.30
2022-11-24T07:44:35.842Z,8.93
2022-11-24T07:47:05.025Z,7.17
2022-11-24T07:49:35.185Z,7.50
2022-11-24T07:52:04.635Z,7.27
2022-11-24T07:54:33.667Z,6.50
2022-11-24T07:57:02.689Z,9.07
2022-11-24T07:59:31.361Z,8.60
2022-11-24T08:02:00.170Z,8.37
2022-11-24T08:04:29.095Z,9.47
2022-11-24T08:06:59.364Z,8.53
2022-11-24T08:09:28.231Z,8.87
2022-11-24T08:11:57.159Z,8.30
2022-11-24T08:14:25.994Z,7.67
2022-11-24T08:16:54.836Z,8.20
2022-11-24T08:19:24.070Z,8.47
2022-11-24T08:21:52.889Z,9.27
2022-11-24T08:24:24.299Z,8.83
2022-11-24T08:26:53.070Z,8.87
2022-11-24T08:29:21.940Z,9.13
2022-11-24T08:31:50.895Z,10.70
2022-11-24T08:34:19.714Z,9.57
2022-11-24T08:36:48.556Z,9.33
2022-11-24T08:39:17.493Z,9.70
2022-11-24T08:41:48.232Z,9.13
2022-11-24T08:44:18.602Z,9.50
2022-11-24T08:46:47.739Z,8.57
2022-11-24T08:49:16.772Z,9.70
2022-11-24T08:51:47.086Z,9.27
2022-11-24T08:54:18.733Z,9.10
2022-11-24T08:56:51.547Z,8.93
2022-11-24T08:59:20.424Z,8.27
2022-11-24T09:01:49.753Z,8.53
2022-11-24T09:04:18.755Z,8.80
2022-11-24T09:06:47.507Z,8.50
2022-11-24T09:09:16.350Z,8.73
2022-11-24T09:11:45.265Z,8.23
2022-11-24T09:14:15.487Z,9.10
2022-11-24T09:16:44.278Z,9.20
2022-11-24T09:19:13.241Z,10.00
2022-11-24T09:21:42.238Z,10.33
2022-11-24T09:24:12.382Z,10.43
2022-11-24T09:26:46.174Z,10.47
2022-11-24T09:29:18.205Z,11.37
2022-11-24T09:31:47.151Z,10.87
2022-11-24T09:34:28.921Z,11.20
2022-11-24T09:36:58.799Z,12.50
2022-11-24T09:39:27.807Z,12.17
2022-11-24T09:42:20.953Z,11.40
2022-11-24T09:45:57.009Z,13.07
2022-11-24T09:48:27.570Z,15.77
2022-11-24T09:50:59.981Z,16.60
2022-11-24T09:53:36.023Z,17.93
2022-11-24T09:56:23.637Z,22.30
2022-11-24T09:58:58.826Z,24.50
2022-11-24T10:01:37.093Z,21.90
2022-11-24T10:04:16.284Z,23.50
2022-11-24T10:07:00.422Z,17.63
2022-11-24T10:09:56.572Z,17.60
2022-11-24T10:12:48.202Z,19.00
2022-11-24T10:15:43.748Z,19.20
2022-11-24T10:18:37.324Z,16.93
2022-11-24T10:21:30.817Z,16.53
2022-11-24T10:24:32.330Z,14.03
2022-11-24T10:27:20.839Z,18.47
2022-11-24T10:29:55.374Z,17.23
2022-11-24T10:32:32.656Z,16.97
2022-11-24T10:35:37.030Z,19.00
2022-11-24T10:38:31.696Z,16.03
2022-11-24T10:41:12.056Z,18.57
2022-11-24T10:43:44.352Z,18.43
2022-11-24T10:46:24.224Z,14.90
2022-11-24T10:48:59.804Z,16.33
2022-11-24T10:52:02.417Z,14.30
2022-11-24T10:54:31.276Z,14.17
2022-11-24T10:57:00.446Z,13.90
2022-11-24T10:59:40.425Z,13.87
2022-11-24T11:02:35.198Z,12.00
2022-11-24T11:05:42.405Z,14.40
2022-11-24T11:08:28.007Z,12.67
2022-11-24T11:11:20.794Z,12.73
2022-11-24T11:14:03.440Z,12.47
2022-11-24T11:16:39.912Z,14.80
2022-11-24T11:19:48.903Z,13.47
2022-11-24T11:22:27.932Z,10.90
2022-11-24T11:25:21.454Z,13.00
2022-11-24T11:27:51.130Z,10.67
2022-11-24T11:36:17.155Z,10.00
2022-11-24T11:38:49.000Z,9.90
2022-11-24T11:41:26.899Z,10.63
2022-11-24T11:44:16.744Z,8.87
2022-11-24T11:46:47.406Z,8.23
2022-11-24T11:49:18.178Z,9.33
2022-11-24T11:52:24.356Z,8.13
2022-11-24T11:55:38.207Z,6.97
2022-11-24T11:58:45.707Z,7.80
2022-11-24T12:01:51.503Z,7.47
2022-11-24T12:04:43.708Z,7.53
2022-11-24T12:07:37.959Z,6.60
2022-11-24T12:10:22.718Z,5.60
2022-11-24T12:13:09.005Z,6.37
2022-11-24T12:15:46.194Z,6.27
2022-11-24T12:21:34.420Z,5.57
2022-11-24T12:24:17.217Z,6.07
2022-11-24T12:26:53.659Z,5.03
2022-11-24T12:29:55.081Z,4.60
2022-11-24T12:32:47.178Z,4.60
2022-11-24T12:35:28.876Z,4.60
2022-11-24T12:38:33.123Z,5.27
2022-11-24T12:41:41.286Z,5.20
2022-11-24T12:44:32.014Z,5.23
2022-11-24T12:47:15.475Z,4.37
2022-11-24T12:50:02.576Z,4.00
2022-11-24T12:52:39.463Z,4.60
2022-11-24T12:55:19.530Z,4.50
2022-11-24T12:58:00.454Z,3.90
2022-11-24T13:00:39.116Z,4.57
2022-11-24T13:03:26.934Z,4.37
2022-11-24T13:06:03.620Z,4.50
2022-11-24T13:08:33.512Z,4.70
2022-11-24T13:11:49.808Z,3.67
2022-11-24T13:14:23.695Z,4.13
2022-11-24T13:19:51.326Z,4.17
2022-11-24T13:22:27.352Z,4.90
2022-11-24T13:25:20.453Z,4.73
2022-11-24T13:27:57.741Z,4.03
2022-11-24T13:31:12.657Z,4.70
2022-11-24T13:33:41.925Z,5.10
2022-11-24T13:36:34.071Z,5.30
2022-11-24T13:39:06.302Z,5.27
2022-11-24T13:42:07.436Z,5.10
2022-11-24T13:44:49.847Z,5.43
2022-11-24T13:47:40.718Z,4.83
2022-11-24T13:50:22.446Z,9.63
2022-11-24T13:53:01.129Z,5.67
2022-11-24T13:55:38.866Z,6.07
2022-11-24T13:58:38.590Z,5.47
2022-11-24T14:01:21.377Z,5.77
2022-11-24T14:04:31.612Z,6.40
2022-11-24T14:07:08.657Z,5.50
2022-11-24T14:09:45.824Z,5.37
2022-11-24T14:12:19.206Z,6.57
2022-11-24T14:14:50.266Z,5.87
2022-11-24T14:17:28.930Z,5.13
2022-11-24T14:19:59.616Z,4.47
2022-11-24T14:22:37.819Z,4.60
2022-11-24T14:25:08.764Z,5.43
2022-11-24T14:27:40.211Z,5.63
2022-11-24T14:30:21.771Z,5.40
2022-11-24T14:33:01.558Z,5.63
2022-11-24T14:35:33.541Z,5.80
2022-11-24T14:38:05.389Z,5.90
2022-11-24T14:40:44.512Z,5.40
2022-11-24T14:43:23.045Z,4.80
2022-11-24T14:45:55.597Z,5.67
2022-11-24T14:48:30.197Z,5.40
2022-11-24T14:51:10.104Z,5.73
2022-11-24T14:53:43.178Z,5.80
2022-11-24T14:56:25.997Z,5.30
2022-11-24T14:58:59.348Z,5.03
2022-11-24T15:01:37.369Z,6.00
2022-11-24T15:04:46.723Z,6.10
2022-11-24T15:07:24.681Z,5.43
2022-11-24T15:09:58.618Z,5.17
2022-11-24T15:12:34.829Z,5.20
2022-11-24T15:15:08.087Z,5.33
2022-11-24T15:17:37.011Z,5.90
2022-11-24T15:20:18.362Z,6.00
2022-11-24T15:22:47.196Z,5.80
2022-11-24T15:25:33.637Z,5.70
2022-11-24T15:28:02.954Z,5.60
2022-11-24T15:30:36.027Z,5.63
2022-11-24T15:33:14.342Z,5.57
2022-11-24T15:35:45.380Z,5.80
2022-11-24T15:38:15.492Z,5.47
2022-11-24T15:40:47.390Z,5.43
2022-11-24T15:48:18.371Z,7.30
2022-11-24T15:50:49.296Z,5.47
2022-11-24T15:53:23.713Z,5.80
2022-11-24T15:55:54.167Z,7.50
2022-11-24T15:58:25.654Z,6.43
2022-11-24T16:00:54.500Z,6.20
2022-11-24T16:03:46.312Z,5.67
2022-11-24T16:06:23.656Z,5.80
2022-11-24T16:08:52.898Z,6.43
2022-11-24T16:11:23.422Z,6.23
2022-11-24T16:13:53.711Z,5.83
2022-11-24T16:16:24.893Z,5.80
2022-11-24T16:18:55.450Z,6.00
2022-11-24T16:21:24.874Z,5.93
2022-11-24T16:23:53.821Z,5.67
2022-11-24T16:26:22.872Z,5.53
2022-11-24T16:28:51.680Z,5.70
2022-11-24T16:31:23.948Z,5.23
2022-11-24T16:33:54.093Z,5.73
2022-11-24T16:36:25.377Z,5.87
2022-11-24T16:38:55.297Z,6.60
2022-11-24T16:41:25.211Z,6.20
2022-11-24T16:43:55.857Z,5.73
2022-11-24T16:46:27.050Z,6.37
2022-11-24T16:49:01.684Z,5.87
2022-11-24T16:51:34.978Z,7.00
2022-11-24T16:54:05.231Z,6.80
2022-11-24T16:56:34.801Z,6.87
2022-11-24T16:59:03.805Z,6.93
2022-11-24T17:01:33.930Z,7.17
2022-11-24T17:04:08.258Z,6.93
2022-11-24T17:06:41.397Z,7.63
2022-11-24T17:09:10.359Z,6.80
2022-11-24T17:11:39.751Z,6.23
2022-11-24T17:14:08.616Z,6.47
2022-11-24T17:16:40.666Z,6.63
2022-11-24T17:19:10.892Z,7.60
2022-11-24T17:21:40.318Z,8.53
2022-11-24T17:24:15.567Z,8.30
2022-11-24T17:26:48.717Z,8.43
2022-11-24T17:29:18.157Z,9.43
2022-11-24T17:31:47.621Z,11.10
2022-11-24T17:34:17.872Z,13.13
2022-11-24T17:36:46.776Z,15.77
2022-11-24T17:39:18.007Z,15.70
2022-11-24T17:41:49.770Z,15.37
2022-11-24T17:44:18.756Z,14.83
2022-11-24T17:46:47.910Z,23.13
2022-11-24T17:49:18.531Z,19.97
2022-11-24T17:51:50.693Z,11.20
2022-11-24T17:54:45.453Z,11.70
2022-11-24T17:57:10.657Z,16.37
2022-11-24T17:59:40.093Z,13.60
2022-11-24T18:02:11.560Z,14.90
2022-11-24T18:04:41.945Z,11.80
2022-11-24T18:07:11.294Z,15.27
2022-11-24T18:09:40.348Z,16.07
2022-11-24T18:12:15.623Z,16.77
2022-11-24T18:15:02.916Z,18.03
2022-11-24T18:17:36.688Z,19.47
2022-11-24T18:20:12.353Z,18.63
2022-11-24T18:23:04.680Z,18.37
2022-11-24T18:25:42.842Z,20.10
2022-11-24T18:28:14.629Z,18.93
2022-11-24T18:30:43.965Z,19.77
2022-11-24T18:33:13.376Z,18.33
2022-11-24T18:35:44.026Z,20.03
2022-11-24T18:38:12.989Z,19.67
2022-11-24T18:40:42.447Z,19.30
2022-11-24T18:43:11.374Z,20.20
2022-11-24T18:45:40.555Z,20.23
2022-11-24T18:48:11.645Z,23.73
2022-11-24T18:50:46.202Z,21.23
2022-11-24T18:53:15.179Z,30.27
2022-11-24T18:55:44.079Z,21.20
2022-11-24T18:58:13.060Z,20.37
2022-11-24T19:00:43.955Z,29.43
2022-11-24T19:03:33.386Z,23.97
2022-11-24T19:06:09.924Z,22.20
2022-11-24T19:08:38.990Z,19.50
2022-11-24T19:11:22.937Z,18.60
2022-11-24T19:13:52.275Z,15.63
2022-11-24T19:16:22.508Z,17.47
2022-11-24T19:18:54.250Z,19.50
2022-11-24T19:21:24.945Z,19.63
2022-11-24T19:23:55.201Z,16.27
2022-11-24T19:26:30.635Z,14.13
2022-11-24T19:28:59.500Z,11.47
2022-11-24T19:31:28.414Z,12.80
2022-11-24T19:33:59.930Z,13.70
2022-11-24T19:37:00.411Z,19.03
2022-11-24T19:39:29.943Z,16.53
2022-11-24T19:41:58.741Z,12.13
2022-11-24T19:44:27.577Z,12.30
2022-11-24T19:46:58.412Z,14.67
2022-11-24T19:49:29.353Z,17.67
2022-11-24T19:52:03.200Z,16.23
2022-11-24T19:54:34.653Z,21.90
2022-11-24T19:57:04.788Z,18.53
2022-11-24T19:59:33.796Z,10.33
2022-11-24T20:02:03.012Z,10.67
2022-11-24T20:04:33.282Z,12.47
2022-11-24T20:07:04.247Z,12.07
2022-11-24T20:09:37.721Z,15.10
2022-11-24T20:12:07.436Z,13.13
2022-11-24T20:14:38.410Z,13.10
2022-11-24T20:17:07.446Z,13.30
2022-11-24T20:19:36.236Z,21.13
2022-11-24T20:22:10.021Z,14.97
2022-11-24T20:24:38.804Z,15.10
2022-11-24T20:27:07.510Z,10.93
2022-11-24T20:29:36.225Z,10.67
2022-11-24T20:32:06.187Z,10.30
2022-11-24T20:34:35.898Z,11.10
2022-11-24T20:37:04.861Z,12.10
2022-11-24T20:39:35.528Z,9.40
2022-11-24T20:42:04.918Z,8.67
2022-11-24T20:44:33.967Z,8.30
2022-11-24T20:47:05.192Z,8.30
2022-11-24T20:49:34.212Z,8.40
2022-11-24T20:52:03.294Z,8.40
2022-11-24T20:54:32.207Z,8.30
2022-11-24T20:57:02.467Z,9.50
2022-11-24T20:59:31.245Z,8.67
2022-11-24T21:02:12.147Z,8.07
2022-11-24T21:04:41.152Z,8.50
2022-11-24T21:07:16.214Z,8.10
2022-11-24T21:09:45.054Z,10.00
2022-11-24T21:12:15.307Z,9.20
2022-11-24T21:14:44.063Z,10.43
2022-11-24T21:17:14.199Z,9.73
2022-11-24T21:19:42.896Z,8.80
2022-11-24T21:22:11.677Z,7.43
2022-11-24T21:24:40.443Z,9.50
2022-11-24T21:27:46.389Z,8.93
2022-11-24T21:30:16.171Z,8.80
2022-11-24T21:32:46.829Z,8.07
2022-11-24T21:35:15.981Z,8.90
2022-11-24T21:37:45.229Z,8.73
2022-11-24T21:40:15.054Z,9.37
2022-11-24T21:42:45.384Z,8.50
2022-11-24T21:45:14.415Z,7.50
2022-11-24T21:47:43.584Z,7.97
2022-11-24T21:50:13.137Z,7.90
2022-11-24T21:52:41.876Z,8.03
2022-11-24T21:55:11.059Z,7.70
2022-11-24T21:57:39.828Z,8.27
2022-11-24T22:00:11.231Z,7.83
2022-11-24T22:02:40.009Z,7.63
2022-11-24T22:05:10.376Z,8.57
2022-11-24T22:07:39.258Z,8.33
2022-11-24T22:10:10.139Z,8.53
2022-11-24T22:12:38.841Z,9.27
2022-11-24T22:15:10.701Z,8.43
2022-11-24T22:17:39.448Z,7.53
2022-11-24T22:20:10.105Z,6.97
2022-11-24T22:22:38.777Z,8.07
2022-11-24T22:25:08.660Z,6.60
2022-11-24T22:27:37.390Z,7.07
2022-11-24T22:30:07.800Z,6.30
2022-11-24T22:32:38.030Z,6.60
2022-11-24T22:35:08.578Z,6.50
2022-11-24T22:37:37.468Z,7.33
2022-11-24T22:40:07.691Z,5.67
2022-11-24T22:42:36.426Z,5.20
2022-11-24T22:45:06.029Z,5.03
2022-11-24T22:47:34.739Z,5.20
2022-11-24T22:50:05.756Z,5.07
2022-11-24T22:52:34.586Z,4.60
2022-11-24T22:55:03.328Z,4.50
2022-11-24T22:57:32.164Z,4.60
2022-11-24T23:00:00.845Z,4.53
2022-11-24T23:02:30.199Z,3.70
2022-11-24T23:04:58.945Z,4.00
2022-11-24T23:07:29.177Z,3.90
2022-11-24T23:09:58.079Z,4.10
2022-11-24T23:12:26.848Z,4.03
2022-11-24T23:14:55.540Z,3.90
2022-11-24T23:17:24.260Z,3.87
2022-11-24T23:19:52.975Z,4.57
2022-11-24T23:22:21.815Z,3.70
2022-11-24T23:24:51.952Z,3.83
2022-11-24T23:27:20.677Z,4.10
2022-11-24T23:29:49.378Z,3.30
2022-11-24T23:32:18.081Z,3.97
2022-11-24T23:34:46.787Z,3.77
2022-11-24T23:37:15.686Z,4.10
2022-11-24T23:39:44.346Z,4.43
2022-11-24T23:42:14.405Z,3.80
2022-11-24T23:44:43.194Z,3.53
2022-11-24T23:47:11.940Z,4.00
2022-11-24T23:49:40.600Z,3.50
2022-11-24T23:52:09.298Z,3.70
2022-11-24T23:54:38.022Z,3.93
2022-11-24T23:57:06.717Z,3.57
2022-11-24T23:59:36.817Z,3.73
